Terminal Aerodrome Forecast
Issued by NWS

Home | Current Version | Previous Version | Text Only | Print | Product List | Glossary On
Versions: 1 2 3 4 5 6 7 8 9 10 11 12 13 14 15 16 17 18 19 20 21 22
084
FTUS46 KLOX 291739
TAFBUR
TAF
KBUR 291739Z 2918/3018 12003KT 5SM HZ OVC016
     FM291900 VRB03KT 6SM HZ OVC023
     FM292200 16010KT P6SM SCT025 SCT120
     FM300300 VRB03KT P6SM OVC020
     FM301100 VRB03KT P6SM OVC014=

USA.gov is the U.S. government's official web portal to all federal, state and local government web resources and services.